DAL2753 KIND-KMSP
Flight info
| Callsign | DAL2753 |
|---|---|
| Flight time | 1h 52m |
| Altitude | 38000 |
| Route | MEARZ7 BVT J89 OBK KAMMA KKILR3 |
| Aircraft | A20N/M-SDE2E3FGHIRWXY/LB1 |
Departure
| Time | 2026-05-06 02:01 |
|---|---|
| Airport | Indianapolis International Airport (KIND) |
Arrival
| Time | 2026-05-06 03:53 |
|---|---|
| Airport | Minneapolis–Saint Paul International Airport / Wold–Chamberlain Field (KMSP) |
| Time | Latitude | Longitude | Altitude | Speed | Heading |
|---|---|---|---|---|---|
| 2026-05-06 01:21 | 39.71401 | -86.29583 | 786 ft | 0 kts | 295° |
| 2026-05-06 01:42 | 39.71399 | -86.29577 | 786 ft | 1 kts | 295° |
| 2026-05-06 01:42 | 39.71396 | -86.29567 | 786 ft | 1 kts | 295° |
| 2026-05-06 01:42 | 39.71392 | -86.29558 | 786 ft | 1 kts | 295° |
| 2026-05-06 01:43 | 39.71393 | -86.29559 | 786 ft | 0 kts | 295° |
| 2026-05-06 01:43 | 39.71388 | -86.29545 | 786 ft | 2 kts | 295° |
| 2026-05-06 01:43 | 39.71382 | -86.29531 | 785 ft | 2 kts | 295° |
| 2026-05-06 01:43 | 39.71377 | -86.29517 | 785 ft | 2 kts | 295° |
| 2026-05-06 01:44 | 39.71372 | -86.29503 | 785 ft | 2 kts | 295° |
| 2026-05-06 01:44 | 39.71367 | -86.29489 | 785 ft | 2 kts | 295° |
| 2026-05-06 01:44 | 39.71362 | -86.29475 | 785 ft | 2 kts | 292° |
| 2026-05-06 01:44 | 39.71358 | -86.29460 | 785 ft | 2 kts | 287° |
| 2026-05-06 01:45 | 39.71353 | -86.29435 | 785 ft | 3 kts | 279° |
| 2026-05-06 01:45 | 39.71353 | -86.29405 | 785 ft | 3 kts | 255° |
| 2026-05-06 01:45 | 39.71363 | -86.29377 | 785 ft | 3 kts | 234° |
| 2026-05-06 01:45 | 39.71371 | -86.29365 | 786 ft | 0 kts | 230° |
| 2026-05-06 01:55 | 39.71370 | -86.29365 | 786 ft | 0 kts | 230° |
| 2026-05-06 01:56 | 39.71348 | -86.29387 | 785 ft | 10 kts | 210° |
| 2026-05-06 01:56 | 39.71238 | -86.29386 | 785 ft | 22 kts | 178° |
| 2026-05-06 01:56 | 39.71059 | -86.29432 | 786 ft | 31 kts | 211° |
| 2026-05-06 01:56 | 39.70880 | -86.29652 | 789 ft | 39 kts | 225° |
| 2026-05-06 01:57 | 39.70672 | -86.29913 | 791 ft | 44 kts | 225° |
| 2026-05-06 01:57 | 39.70467 | -86.30184 | 788 ft | 36 kts | 226° |
| 2026-05-06 01:57 | 39.70327 | -86.30354 | 790 ft | 12 kts | 221° |
| 2026-05-06 01:57 | 39.70268 | -86.30426 | 787 ft | 12 kts | 224° |
| 2026-05-06 01:58 | 39.70205 | -86.30509 | 788 ft | 15 kts | 226° |
| 2026-05-06 01:58 | 39.70129 | -86.30561 | 791 ft | 2 kts | 172° |
| 2026-05-06 01:58 | 39.70120 | -86.30554 | 791 ft | 4 kts | 150° |
| 2026-05-06 01:58 | 39.70114 | -86.30543 | 791 ft | 0 kts | 125° |
| 2026-05-06 01:59 | 39.70112 | -86.30539 | 791 ft | 2 kts | 125° |
| 2026-05-06 01:59 | 39.70085 | -86.30500 | 791 ft | 8 kts | 136° |
| 2026-05-06 01:59 | 39.70058 | -86.30447 | 791 ft | 6 kts | 109° |
| 2026-05-06 01:59 | 39.70056 | -86.30402 | 791 ft | 4 kts | 70° |
| 2026-05-06 02:00 | 39.70096 | -86.30350 | 789 ft | 15 kts | 44° |
| 2026-05-06 02:00 | 39.70372 | -86.30001 | 790 ft | 94 kts | 44° |
| 2026-05-06 02:00 | 39.71000 | -86.29206 | 787 ft | 155 kts | 45° |
| 2026-05-06 02:00 | 39.71874 | -86.28073 | 901 ft | 196 kts | 45° |
| 2026-05-06 02:01 | 39.72893 | -86.26738 | 1239 ft | 220 kts | 44° |
| 2026-05-06 02:01 | 39.73948 | -86.25355 | 2327 ft | 211 kts | 43° |
| 2026-05-06 02:01 | 39.75009 | -86.23964 | 3228 ft | 226 kts | 42° |
| 2026-05-06 02:01 | 39.76198 | -86.22415 | 3751 ft | 258 kts | 43° |
| 2026-05-06 02:02 | 39.77533 | -86.20675 | 4259 ft | 286 kts | 43° |
| 2026-05-06 02:02 | 39.78904 | -86.18882 | 4711 ft | 276 kts | 43° |
| 2026-05-06 02:02 | 39.80254 | -86.17120 | 4943 ft | 278 kts | 43° |
| 2026-05-06 02:02 | 39.81633 | -86.15322 | 5019 ft | 281 kts | 44° |
| 2026-05-06 02:03 | 39.83011 | -86.13523 | 5023 ft | 280 kts | 44° |
| 2026-05-06 02:03 | 39.84389 | -86.11726 | 5060 ft | 282 kts | 43° |
| 2026-05-06 02:03 | 39.85781 | -86.09913 | 5435 ft | 286 kts | 44° |
| 2026-05-06 02:03 | 39.87205 | -86.08060 | 6312 ft | 291 kts | 44° |
| 2026-05-06 02:04 | 39.88656 | -86.06171 | 7108 ft | 299 kts | 44° |
| 2026-05-06 02:04 | 39.90138 | -86.04242 | 7903 ft | 308 kts | 43° |
| 2026-05-06 02:04 | 39.91681 | -86.02232 | 8702 ft | 316 kts | 43° |
| 2026-05-06 02:04 | 39.93237 | -86.00208 | 9498 ft | 325 kts | 43° |
| 2026-05-06 02:05 | 39.94851 | -85.98107 | 10238 ft | 333 kts | 42° |
| 2026-05-06 02:05 | 39.96543 | -85.95911 | 10653 ft | 354 kts | 43° |
| 2026-05-06 02:05 | 39.98341 | -85.93582 | 11000 ft | 374 kts | 43° |
| 2026-05-06 02:05 | 40.00212 | -85.91150 | 11626 ft | 384 kts | 43° |
| 2026-05-06 02:06 | 40.02119 | -85.88670 | 12319 ft | 391 kts | 43° |
| 2026-05-06 02:06 | 40.04067 | -85.86142 | 12997 ft | 398 kts | 41° |
| 2026-05-06 02:06 | 40.06293 | -85.84020 | 13681 ft | 395 kts | 20° |
| 2026-05-06 02:06 | 40.08867 | -85.82955 | 14336 ft | 384 kts | 359° |
| 2026-05-06 02:07 | 40.11464 | -85.83056 | 15062 ft | 367 kts | 339° |
| 2026-05-06 02:07 | 40.13042 | -85.83732 | 15529 ft | 356 kts | 326° |
| 2026-05-06 02:07 | 40.15700 | -85.86087 | 16481 ft | 348 kts | 315° |
| 2026-05-06 02:07 | 40.17635 | -85.88011 | 17192 ft | 351 kts | 315° |
| 2026-05-06 02:08 | 40.19583 | -85.89958 | 17894 ft | 354 kts | 315° |
| 2026-05-06 02:08 | 40.21547 | -85.91928 | 18511 ft | 358 kts | 315° |
| 2026-05-06 02:08 | 40.23531 | -85.93922 | 19067 ft | 362 kts | 315° |
| 2026-05-06 02:08 | 40.25537 | -85.95938 | 19631 ft | 366 kts | 315° |
| 2026-05-06 02:09 | 40.26880 | -85.97288 | 19999 ft | 368 kts | 315° |
| 2026-05-06 02:09 | 40.28919 | -85.99339 | 20559 ft | 372 kts | 315° |
| 2026-05-06 02:09 | 40.31652 | -86.02094 | 21276 ft | 377 kts | 315° |
| 2026-05-06 02:09 | 40.33743 | -86.04201 | 21806 ft | 381 kts | 315° |
| 2026-05-06 02:10 | 40.35853 | -86.06329 | 22359 ft | 385 kts | 315° |
| 2026-05-06 02:10 | 40.37978 | -86.08474 | 22892 ft | 388 kts | 315° |
| 2026-05-06 02:10 | 40.39408 | -86.09918 | 23248 ft | 391 kts | 315° |
| 2026-05-06 02:10 | 40.41576 | -86.12108 | 23770 ft | 395 kts | 315° |
| 2026-05-06 02:11 | 40.43775 | -86.14310 | 24167 ft | 400 kts | 315° |
| 2026-05-06 02:11 | 40.45994 | -86.16514 | 24729 ft | 400 kts | 315° |
| 2026-05-06 02:11 | 40.48940 | -86.19424 | 25407 ft | 402 kts | 315° |
| 2026-05-06 02:11 | 40.51194 | -86.21618 | 25878 ft | 403 kts | 314° |
| 2026-05-06 02:12 | 40.52594 | -86.23192 | 26222 ft | 395 kts | 306° |
| 2026-05-06 02:12 | 40.54242 | -86.26043 | 26725 ft | 382 kts | 292° |
| 2026-05-06 02:12 | 40.55205 | -86.29198 | 27172 ft | 374 kts | 279° |
| 2026-05-06 02:12 | 40.55487 | -86.32557 | 27604 ft | 369 kts | 266° |
| 2026-05-06 02:13 | 40.55173 | -86.35904 | 28022 ft | 370 kts | 260° |
| 2026-05-06 02:13 | 40.54820 | -86.39255 | 28429 ft | 372 kts | 266° |
| 2026-05-06 02:13 | 40.54984 | -86.42661 | 28822 ft | 375 kts | 275° |
| 2026-05-06 02:13 | 40.55521 | -86.46933 | 29316 ft | 378 kts | 278° |
| 2026-05-06 02:14 | 40.56115 | -86.50316 | 29712 ft | 380 kts | 280° |
| 2026-05-06 02:14 | 40.56735 | -86.53701 | 30079 ft | 381 kts | 280° |
| 2026-05-06 02:14 | 40.57351 | -86.57094 | 30458 ft | 381 kts | 280° |
| 2026-05-06 02:14 | 40.57896 | -86.60474 | 30999 ft | 374 kts | 275° |
| 2026-05-06 02:15 | 40.57909 | -86.63860 | 31517 ft | 369 kts | 266° |
| 2026-05-06 02:15 | 40.57725 | -86.67212 | 32056 ft | 365 kts | 266° |
| 2026-05-06 02:15 | 40.57544 | -86.70511 | 32620 ft | 359 kts | 267° |
| 2026-05-06 02:15 | 40.57372 | -86.73724 | 33177 ft | 354 kts | 267° |
| 2026-05-06 02:16 | 40.57202 | -86.76934 | 33726 ft | 349 kts | 268° |
| 2026-05-06 02:16 | 40.57036 | -86.80094 | 34193 ft | 344 kts | 268° |
| 2026-05-06 02:16 | 40.56872 | -86.83228 | 34515 ft | 343 kts | 268° |
| 2026-05-06 02:16 | 40.56710 | -86.86338 | 34782 ft | 342 kts | 268° |
| 2026-05-06 02:17 | 40.56545 | -86.89471 | 35061 ft | 342 kts | 268° |
| 2026-05-06 02:17 | 40.56446 | -86.92584 | 35323 ft | 340 kts | 271° |
| 2026-05-06 02:17 | 40.56654 | -86.95679 | 35594 ft | 340 kts | 278° |
| 2026-05-06 02:17 | 40.57196 | -86.98698 | 35903 ft | 340 kts | 283° |
| 2026-05-06 02:18 | 40.58042 | -87.01570 | 36151 ft | 344 kts | 289° |
| 2026-05-06 02:18 | 40.59215 | -87.04334 | 36364 ft | 349 kts | 296° |
| 2026-05-06 02:18 | 40.60699 | -87.06899 | 36575 ft | 356 kts | 302° |
| 2026-05-06 02:18 | 40.62485 | -87.09210 | 36788 ft | 365 kts | 309° |
| 2026-05-06 02:19 | 40.64573 | -87.11214 | 36974 ft | 377 kts | 316° |
| 2026-05-06 02:19 | 40.66933 | -87.12826 | 37161 ft | 390 kts | 324° |
| 2026-05-06 02:19 | 40.69484 | -87.14129 | 37350 ft | 393 kts | 325° |
| 2026-05-06 02:19 | 40.72039 | -87.15422 | 37535 ft | 393 kts | 324° |
| 2026-05-06 02:20 | 40.77092 | -87.18018 | 37873 ft | 392 kts | 324° |
| 2026-05-06 02:20 | 40.79632 | -87.19333 | 37892 ft | 391 kts | 324° |
| 2026-05-06 02:21 | 40.84685 | -87.21959 | 37885 ft | 390 kts | 324° |
| 2026-05-06 02:21 | 40.89740 | -87.24598 | 37882 ft | 390 kts | 324° |
| 2026-05-06 02:22 | 40.94787 | -87.27233 | 37887 ft | 390 kts | 324° |
| 2026-05-06 02:22 | 40.99802 | -87.29856 | 37885 ft | 390 kts | 324° |
| 2026-05-06 02:23 | 41.04853 | -87.32501 | 37888 ft | 391 kts | 324° |
| 2026-05-06 02:23 | 41.09915 | -87.35155 | 37887 ft | 391 kts | 324° |
| 2026-05-06 02:24 | 41.14951 | -87.37798 | 37881 ft | 387 kts | 324° |
| 2026-05-06 02:24 | 41.19933 | -87.40423 | 37888 ft | 388 kts | 324° |
| 2026-05-06 02:25 | 41.24956 | -87.43071 | 37885 ft | 388 kts | 324° |
| 2026-05-06 02:25 | 41.29981 | -87.45722 | 37870 ft | 388 kts | 324° |
| 2026-05-06 02:26 | 41.35002 | -87.48376 | 37882 ft | 388 kts | 324° |
| 2026-05-06 02:26 | 41.39917 | -87.50978 | 37871 ft | 387 kts | 324° |
| 2026-05-06 02:27 | 41.44877 | -87.53608 | 37860 ft | 386 kts | 324° |
| 2026-05-06 02:27 | 41.49859 | -87.56255 | 37884 ft | 385 kts | 324° |
| 2026-05-06 02:28 | 41.54831 | -87.58902 | 37933 ft | 386 kts | 324° |
| 2026-05-06 02:28 | 41.59858 | -87.61589 | 37904 ft | 390 kts | 324° |
| 2026-05-06 02:29 | 41.64861 | -87.64254 | 37901 ft | 389 kts | 324° |
| 2026-05-06 02:29 | 41.69830 | -87.66910 | 37887 ft | 389 kts | 324° |
| 2026-05-06 02:30 | 41.74859 | -87.69605 | 37887 ft | 389 kts | 324° |
| 2026-05-06 02:30 | 41.79899 | -87.72311 | 37880 ft | 391 kts | 323° |
| 2026-05-06 02:31 | 41.84948 | -87.75024 | 37884 ft | 391 kts | 323° |
| 2026-05-06 02:31 | 41.90010 | -87.77750 | 37883 ft | 391 kts | 323° |
| 2026-05-06 02:32 | 41.95030 | -87.80458 | 37875 ft | 392 kts | 323° |
| 2026-05-06 02:32 | 42.00090 | -87.83193 | 37872 ft | 393 kts | 323° |
| 2026-05-06 02:33 | 42.05171 | -87.85942 | 37895 ft | 393 kts | 323° |
| 2026-05-06 02:33 | 42.06847 | -87.86851 | 37895 ft | 394 kts | 323° |
| 2026-05-06 02:34 | 42.15253 | -87.91413 | 37901 ft | 394 kts | 323° |
| 2026-05-06 02:34 | 42.20345 | -87.94184 | 37880 ft | 396 kts | 324° |
| 2026-05-06 02:35 | 42.25694 | -87.96466 | 37881 ft | 409 kts | 330° |
| 2026-05-06 02:35 | 42.30254 | -87.98130 | 37884 ft | 408 kts | 330° |
| 2026-05-06 02:36 | 42.36622 | -88.00483 | 37889 ft | 409 kts | 330° |
| 2026-05-06 02:36 | 42.42117 | -88.02515 | 37887 ft | 410 kts | 330° |
| 2026-05-06 02:37 | 42.47623 | -88.04550 | 37883 ft | 411 kts | 330° |
| 2026-05-06 02:37 | 42.52001 | -88.06169 | 37892 ft | 411 kts | 330° |
| 2026-05-06 02:39 | 42.55059 | -88.07302 | 37895 ft | 411 kts | 330° |
| 2026-05-06 02:40 | 42.61468 | -88.09682 | 37890 ft | 413 kts | 330° |
| 2026-05-06 02:40 | 42.66200 | -88.11444 | 37881 ft | 413 kts | 330° |
| 2026-05-06 02:41 | 42.71637 | -88.13468 | 37904 ft | 414 kts | 330° |
| 2026-05-06 02:41 | 42.77163 | -88.15530 | 37907 ft | 415 kts | 330° |
| 2026-05-06 02:42 | 42.82732 | -88.17612 | 37910 ft | 415 kts | 330° |
| 2026-05-06 02:42 | 42.88315 | -88.19703 | 37909 ft | 416 kts | 330° |
| 2026-05-06 02:43 | 42.93901 | -88.21800 | 37937 ft | 417 kts | 330° |
| 2026-05-06 02:43 | 42.99460 | -88.23889 | 37923 ft | 417 kts | 330° |
| 2026-05-06 02:44 | 43.05031 | -88.26044 | 37921 ft | 412 kts | 326° |
| 2026-05-06 02:44 | 43.07605 | -88.27581 | 37924 ft | 398 kts | 318° |
| 2026-05-06 02:44 | 43.09915 | -88.29551 | 37925 ft | 385 kts | 311° |
| 2026-05-06 02:44 | 43.11941 | -88.31865 | 37924 ft | 374 kts | 304° |
| 2026-05-06 02:45 | 43.13676 | -88.34461 | 37920 ft | 365 kts | 298° |
| 2026-05-06 02:45 | 43.16276 | -88.40214 | 37914 ft | 355 kts | 290° |
| 2026-05-06 02:46 | 43.18590 | -88.46189 | 37893 ft | 355 kts | 290° |
| 2026-05-06 02:46 | 43.20918 | -88.52169 | 37882 ft | 356 kts | 290° |
| 2026-05-06 02:47 | 43.23243 | -88.58171 | 37883 ft | 357 kts | 290° |
| 2026-05-06 02:47 | 43.25570 | -88.64202 | 37874 ft | 358 kts | 290° |
| 2026-05-06 02:48 | 43.27880 | -88.70203 | 37880 ft | 358 kts | 290° |
| 2026-05-06 02:48 | 43.30207 | -88.76261 | 37920 ft | 359 kts | 290° |
| 2026-05-06 02:49 | 43.32510 | -88.82271 | 37924 ft | 360 kts | 290° |
| 2026-05-06 02:49 | 43.34821 | -88.88315 | 37927 ft | 361 kts | 290° |
| 2026-05-06 02:50 | 43.37154 | -88.94425 | 37928 ft | 361 kts | 290° |
| 2026-05-06 02:50 | 43.39487 | -89.00551 | 37920 ft | 362 kts | 290° |
| 2026-05-06 02:51 | 43.41820 | -89.06689 | 37904 ft | 363 kts | 290° |
| 2026-05-06 02:51 | 43.44143 | -89.12816 | 37913 ft | 365 kts | 289° |
| 2026-05-06 02:52 | 43.46489 | -89.19016 | 37909 ft | 365 kts | 289° |
| 2026-05-06 02:52 | 43.48833 | -89.25224 | 37904 ft | 366 kts | 289° |
| 2026-05-06 02:53 | 43.51174 | -89.31439 | 37916 ft | 366 kts | 289° |
| 2026-05-06 02:53 | 43.53516 | -89.37668 | 37918 ft | 366 kts | 289° |
| 2026-05-06 02:54 | 43.55837 | -89.43858 | 37930 ft | 366 kts | 289° |
| 2026-05-06 02:54 | 43.58172 | -89.50099 | 37928 ft | 366 kts | 289° |
| 2026-05-06 02:55 | 43.60506 | -89.56349 | 37909 ft | 366 kts | 289° |
| 2026-05-06 02:55 | 43.62830 | -89.62590 | 37908 ft | 366 kts | 289° |
| 2026-05-06 02:56 | 43.65145 | -89.68821 | 37895 ft | 367 kts | 289° |
| 2026-05-06 02:56 | 43.67473 | -89.75095 | 37893 ft | 367 kts | 289° |
| 2026-05-06 02:57 | 43.69799 | -89.81383 | 37893 ft | 367 kts | 289° |
| 2026-05-06 02:57 | 43.72122 | -89.87676 | 37893 ft | 367 kts | 289° |
| 2026-05-06 02:58 | 43.74425 | -89.93927 | 37894 ft | 367 kts | 289° |
| 2026-05-06 02:58 | 43.76738 | -90.00221 | 37894 ft | 368 kts | 289° |
| 2026-05-06 02:59 | 43.79055 | -90.06543 | 37884 ft | 368 kts | 289° |
| 2026-05-06 02:59 | 43.81370 | -90.12869 | 37890 ft | 368 kts | 289° |
| 2026-05-06 03:00 | 43.83668 | -90.19168 | 37896 ft | 370 kts | 289° |
| 2026-05-06 03:00 | 43.86414 | -90.25289 | 37871 ft | 379 kts | 297° |
| 2026-05-06 03:01 | 43.89546 | -90.31185 | 37887 ft | 380 kts | 297° |
| 2026-05-06 03:01 | 43.92677 | -90.37104 | 37902 ft | 381 kts | 297° |
| 2026-05-06 03:02 | 43.95807 | -90.43050 | 37898 ft | 382 kts | 297° |
| 2026-05-06 03:02 | 43.98916 | -90.48974 | 37908 ft | 383 kts | 297° |
| 2026-05-06 03:03 | 44.02054 | -90.54964 | 37931 ft | 384 kts | 297° |
| 2026-05-06 03:03 | 44.05200 | -90.60987 | 37929 ft | 386 kts | 297° |
| 2026-05-06 03:04 | 44.08354 | -90.67031 | 37942 ft | 387 kts | 297° |
| 2026-05-06 03:04 | 44.11490 | -90.73052 | 37941 ft | 387 kts | 297° |
| 2026-05-06 03:05 | 44.14645 | -90.79124 | 37938 ft | 387 kts | 297° |
| 2026-05-06 03:05 | 44.17802 | -90.85214 | 37944 ft | 387 kts | 297° |
| 2026-05-06 03:06 | 44.20950 | -90.91297 | 37944 ft | 387 kts | 297° |
| 2026-05-06 03:06 | 44.24076 | -90.97361 | 37936 ft | 389 kts | 298° |
| 2026-05-06 03:07 | 44.27231 | -91.03485 | 37937 ft | 389 kts | 298° |
| 2026-05-06 03:07 | 44.30385 | -91.09619 | 37933 ft | 389 kts | 298° |
| 2026-05-06 03:08 | 44.33533 | -91.15757 | 37930 ft | 389 kts | 298° |
| 2026-05-06 03:08 | 44.36682 | -91.21909 | 37916 ft | 389 kts | 298° |
| 2026-05-06 03:09 | 44.39806 | -91.28024 | 37921 ft | 389 kts | 298° |
| 2026-05-06 03:09 | 44.42951 | -91.34196 | 37918 ft | 390 kts | 298° |
| 2026-05-06 03:10 | 44.46101 | -91.40390 | 37922 ft | 391 kts | 298° |
| 2026-05-06 03:10 | 44.49255 | -91.46602 | 37927 ft | 391 kts | 298° |
| 2026-05-06 03:11 | 44.52405 | -91.52819 | 37949 ft | 392 kts | 298° |
| 2026-05-06 03:11 | 44.55537 | -91.59019 | 37927 ft | 393 kts | 298° |
| 2026-05-06 03:12 | 44.58692 | -91.65275 | 37929 ft | 393 kts | 298° |
| 2026-05-06 03:12 | 44.61855 | -91.71564 | 37928 ft | 395 kts | 298° |
| 2026-05-06 03:13 | 44.65026 | -91.77877 | 37937 ft | 396 kts | 298° |
| 2026-05-06 03:13 | 44.68175 | -91.84162 | 37951 ft | 397 kts | 298° |
| 2026-05-06 03:14 | 44.71354 | -91.90519 | 37944 ft | 398 kts | 298° |
| 2026-05-06 03:14 | 44.74534 | -91.96896 | 37942 ft | 399 kts | 298° |
| 2026-05-06 03:15 | 44.77697 | -92.03251 | 37952 ft | 399 kts | 298° |
| 2026-05-06 03:15 | 44.80881 | -92.09662 | 37926 ft | 399 kts | 298° |
| 2026-05-06 03:15 | 44.82467 | -92.12857 | 37559 ft | 398 kts | 298° |
| 2026-05-06 03:16 | 44.83887 | -92.16172 | 36875 ft | 393 kts | 290° |
| 2026-05-06 03:16 | 44.84917 | -92.19732 | 36013 ft | 392 kts | 283° |
| 2026-05-06 03:16 | 44.85544 | -92.23443 | 35230 ft | 389 kts | 275° |
| 2026-05-06 03:16 | 44.85809 | -92.27227 | 34537 ft | 385 kts | 271° |
| 2026-05-06 03:17 | 44.86027 | -92.30981 | 33863 ft | 383 kts | 272° |
| 2026-05-06 03:17 | 44.86250 | -92.34707 | 33197 ft | 378 kts | 271° |
| 2026-05-06 03:17 | 44.86439 | -92.38332 | 32985 ft | 364 kts | 271° |
| 2026-05-06 03:18 | 44.86639 | -92.45270 | 32944 ft | 358 kts | 264° |
| 2026-05-06 03:18 | 44.86297 | -92.48731 | 32773 ft | 356 kts | 257° |
| 2026-05-06 03:18 | 44.85596 | -92.52079 | 32193 ft | 357 kts | 251° |
| 2026-05-06 03:18 | 44.84542 | -92.55270 | 31346 ft | 362 kts | 245° |
| 2026-05-06 03:19 | 44.83370 | -92.58412 | 30592 ft | 362 kts | 246° |
| 2026-05-06 03:19 | 44.82231 | -92.61494 | 30403 ft | 346 kts | 246° |
| 2026-05-06 03:19 | 44.81156 | -92.64409 | 30116 ft | 335 kts | 246° |
| 2026-05-06 03:19 | 44.80095 | -92.67300 | 29532 ft | 330 kts | 246° |
| 2026-05-06 03:20 | 44.78087 | -92.73027 | 28503 ft | 315 kts | 251° |
| 2026-05-06 03:20 | 44.77405 | -92.75874 | 28374 ft | 300 kts | 256° |
| 2026-05-06 03:20 | 44.76972 | -92.78668 | 28262 ft | 285 kts | 260° |
| 2026-05-06 03:21 | 44.76755 | -92.81381 | 28173 ft | 272 kts | 264° |
| 2026-05-06 03:21 | 44.76633 | -92.83964 | 28075 ft | 259 kts | 264° |
| 2026-05-06 03:21 | 44.76506 | -92.86397 | 27987 ft | 245 kts | 263° |
| 2026-05-06 03:21 | 44.76379 | -92.88728 | 27818 ft | 235 kts | 263° |
| 2026-05-06 03:22 | 44.76252 | -92.91009 | 27367 ft | 233 kts | 264° |
| 2026-05-06 03:22 | 44.76302 | -92.93300 | 26840 ft | 238 kts | 274° |
| 2026-05-06 03:22 | 44.76746 | -92.95570 | 26371 ft | 245 kts | 284° |
| 2026-05-06 03:22 | 44.77569 | -92.97710 | 25921 ft | 252 kts | 291° |
| 2026-05-06 03:23 | 44.78502 | -92.99792 | 25492 ft | 251 kts | 291° |
| 2026-05-06 03:23 | 44.79419 | -93.01873 | 25070 ft | 250 kts | 291° |
| 2026-05-06 03:23 | 44.80321 | -93.03931 | 24660 ft | 250 kts | 291° |
| 2026-05-06 03:23 | 44.81225 | -93.06013 | 24250 ft | 249 kts | 291° |
| 2026-05-06 03:24 | 44.82125 | -93.08100 | 23765 ft | 253 kts | 292° |
| 2026-05-06 03:24 | 44.83067 | -93.10217 | 23312 ft | 253 kts | 293° |
| 2026-05-06 03:24 | 44.83994 | -93.12308 | 22882 ft | 251 kts | 293° |
| 2026-05-06 03:24 | 44.84897 | -93.14429 | 22292 ft | 254 kts | 292° |
| 2026-05-06 03:25 | 44.85842 | -93.16636 | 21259 ft | 271 kts | 291° |
| 2026-05-06 03:25 | 44.86910 | -93.18989 | 20080 ft | 298 kts | 298° |
| 2026-05-06 03:25 | 44.87913 | -93.21581 | 18893 ft | 316 kts | 293° |
| 2026-05-06 03:25 | 44.89076 | -93.24369 | 17520 ft | 341 kts | 298° |
| 2026-05-06 03:26 | 44.90040 | -93.27472 | 16200 ft | 353 kts | 283° |
| 2026-05-06 03:26 | 44.90452 | -93.30957 | 14879 ft | 367 kts | 276° |
| 2026-05-06 03:26 | 44.90709 | -93.34612 | 13561 ft | 381 kts | 275° |
| 2026-05-06 03:26 | 44.90926 | -93.38330 | 12630 ft | 379 kts | 275° |
| 2026-05-06 03:27 | 44.91132 | -93.42010 | 11838 ft | 374 kts | 275° |
| 2026-05-06 03:27 | 44.91638 | -93.45573 | 11032 ft | 369 kts | 290° |
| 2026-05-06 03:27 | 44.92838 | -93.48672 | 10363 ft | 364 kts | 307° |
| 2026-05-06 03:27 | 44.94647 | -93.51056 | 10078 ft | 349 kts | 321° |
| 2026-05-06 03:28 | 44.96560 | -93.53011 | 10000 ft | 330 kts | 323° |
| 2026-05-06 03:28 | 44.98385 | -93.54825 | 9986 ft | 310 kts | 323° |
| 2026-05-06 03:28 | 45.00088 | -93.56532 | 9984 ft | 291 kts | 322° |
| 2026-05-06 03:28 | 45.01685 | -93.58152 | 9990 ft | 274 kts | 322° |
| 2026-05-06 03:29 | 45.03178 | -93.59683 | 9992 ft | 257 kts | 322° |
| 2026-05-06 03:29 | 45.04571 | -93.61119 | 9987 ft | 240 kts | 322° |
| 2026-05-06 03:29 | 45.05816 | -93.62526 | 9990 ft | 223 kts | 310° |
| 2026-05-06 03:29 | 45.06586 | -93.64364 | 9995 ft | 221 kts | 288° |
| 2026-05-06 03:30 | 45.06741 | -93.66534 | 9992 ft | 225 kts | 264° |
| 2026-05-06 03:30 | 45.06207 | -93.68607 | 9991 ft | 230 kts | 240° |
| 2026-05-06 03:30 | 45.05290 | -93.70484 | 9992 ft | 231 kts | 239° |
| 2026-05-06 03:30 | 45.04379 | -93.72359 | 10000 ft | 231 kts | 240° |
| 2026-05-06 03:31 | 45.03454 | -93.74222 | 9998 ft | 233 kts | 232° |
| 2026-05-06 03:31 | 45.02161 | -93.75644 | 9995 ft | 241 kts | 211° |
| 2026-05-06 03:31 | 45.00538 | -93.76186 | 10005 ft | 251 kts | 180° |
| 2026-05-06 03:31 | 44.98851 | -93.75492 | 10005 ft | 258 kts | 151° |
| 2026-05-06 03:32 | 44.97359 | -93.74060 | 9996 ft | 260 kts | 142° |
| 2026-05-06 03:32 | 44.96053 | -93.72298 | 9989 ft | 261 kts | 132° |
| 2026-05-06 03:32 | 44.94881 | -93.70332 | 9995 ft | 261 kts | 129° |
| 2026-05-06 03:32 | 44.93850 | -93.68224 | 9992 ft | 261 kts | 121° |
| 2026-05-06 03:33 | 44.92932 | -93.66015 | 9994 ft | 261 kts | 120° |
| 2026-05-06 03:33 | 44.92026 | -93.63820 | 9994 ft | 261 kts | 120° |
| 2026-05-06 03:33 | 44.91275 | -93.61509 | 9993 ft | 260 kts | 103° |
| 2026-05-06 03:33 | 44.91045 | -93.59022 | 9989 ft | 259 kts | 90° |
| 2026-05-06 03:34 | 44.90968 | -93.56486 | 9987 ft | 259 kts | 90° |
| 2026-05-06 03:34 | 44.90894 | -93.53956 | 9978 ft | 258 kts | 90° |
| 2026-05-06 03:34 | 44.90820 | -93.51433 | 9818 ft | 256 kts | 90° |
| 2026-05-06 03:34 | 44.90747 | -93.48927 | 9489 ft | 256 kts | 90° |
| 2026-05-06 03:35 | 44.90673 | -93.46425 | 9150 ft | 255 kts | 90° |
| 2026-05-06 03:35 | 44.90598 | -93.43928 | 8811 ft | 254 kts | 90° |
| 2026-05-06 03:35 | 44.90697 | -93.41477 | 8468 ft | 248 kts | 69° |
| 2026-05-06 03:35 | 44.91417 | -93.39309 | 8098 ft | 244 kts | 59° |
| 2026-05-06 03:36 | 44.92149 | -93.37185 | 7800 ft | 243 kts | 60° |
| 2026-05-06 03:36 | 44.92879 | -93.35039 | 7509 ft | 242 kts | 60° |
| 2026-05-06 03:36 | 44.93597 | -93.32924 | 7227 ft | 240 kts | 60° |
| 2026-05-06 03:36 | 44.94317 | -93.30799 | 6915 ft | 240 kts | 60° |
| 2026-05-06 03:37 | 44.95028 | -93.28694 | 6641 ft | 238 kts | 60° |
| 2026-05-06 03:37 | 44.95726 | -93.26635 | 6369 ft | 236 kts | 60° |
| 2026-05-06 03:37 | 44.96418 | -93.24591 | 6089 ft | 235 kts | 60° |
| 2026-05-06 03:37 | 44.97118 | -93.22535 | 5812 ft | 234 kts | 60° |
| 2026-05-06 03:38 | 44.97813 | -93.20499 | 5528 ft | 232 kts | 60° |
| 2026-05-06 03:38 | 44.98393 | -93.18367 | 5243 ft | 234 kts | 79° |
| 2026-05-06 03:38 | 44.98204 | -93.16100 | 5053 ft | 234 kts | 108° |
| 2026-05-06 03:38 | 44.97693 | -93.13865 | 5004 ft | 239 kts | 104° |
| 2026-05-06 03:39 | 44.97308 | -93.11632 | 5006 ft | 236 kts | 100° |
| 2026-05-06 03:39 | 44.96966 | -93.09365 | 5006 ft | 237 kts | 99° |
| 2026-05-06 03:39 | 44.96622 | -93.07084 | 5005 ft | 237 kts | 98° |
| 2026-05-06 03:39 | 44.96455 | -93.04774 | 5013 ft | 236 kts | 89° |
| 2026-05-06 03:40 | 44.96406 | -93.02477 | 5005 ft | 233 kts | 89° |
| 2026-05-06 03:40 | 44.96363 | -93.00198 | 4983 ft | 231 kts | 89° |
| 2026-05-06 03:40 | 44.96321 | -92.97942 | 4772 ft | 230 kts | 89° |
| 2026-05-06 03:40 | 44.96277 | -92.95680 | 4466 ft | 230 kts | 89° |
| 2026-05-06 03:41 | 44.96229 | -92.93452 | 4184 ft | 230 kts | 89° |
| 2026-05-06 03:41 | 44.96176 | -92.91219 | 4012 ft | 224 kts | 89° |
| 2026-05-06 03:41 | 44.96121 | -92.88978 | 4001 ft | 231 kts | 89° |
| 2026-05-06 03:41 | 44.96066 | -92.86722 | 4002 ft | 230 kts | 89° |
| 2026-05-06 03:42 | 44.96013 | -92.84481 | 3998 ft | 230 kts | 89° |
| 2026-05-06 03:42 | 44.95960 | -92.82231 | 3997 ft | 230 kts | 89° |
| 2026-05-06 03:42 | 44.95908 | -92.79967 | 3971 ft | 230 kts | 89° |
| 2026-05-06 03:42 | 44.95859 | -92.77709 | 3977 ft | 230 kts | 89° |
| 2026-05-06 03:43 | 44.95747 | -92.75483 | 3967 ft | 232 kts | 103° |
| 2026-05-06 03:43 | 44.94954 | -92.73498 | 3976 ft | 237 kts | 135° |
| 2026-05-06 03:43 | 44.93554 | -92.72323 | 3975 ft | 235 kts | 168° |
| 2026-05-06 03:43 | 44.91937 | -92.72081 | 3973 ft | 234 kts | 179° |
| 2026-05-06 03:44 | 44.90314 | -92.71957 | 3972 ft | 234 kts | 179° |
| 2026-05-06 03:44 | 44.88691 | -92.71834 | 3971 ft | 234 kts | 179° |
| 2026-05-06 03:44 | 44.87068 | -92.71715 | 3973 ft | 234 kts | 179° |
| 2026-05-06 03:44 | 44.85445 | -92.71596 | 3974 ft | 233 kts | 179° |
| 2026-05-06 03:45 | 44.83846 | -92.71479 | 3979 ft | 234 kts | 179° |
| 2026-05-06 03:45 | 44.82219 | -92.71361 | 3975 ft | 234 kts | 179° |
| 2026-05-06 03:45 | 44.80597 | -92.71328 | 3976 ft | 232 kts | 188° |
| 2026-05-06 03:45 | 44.79012 | -92.71683 | 3969 ft | 229 kts | 204° |
| 2026-05-06 03:46 | 44.77752 | -92.72931 | 3974 ft | 220 kts | 238° |
| 2026-05-06 03:46 | 44.77053 | -92.74810 | 3972 ft | 217 kts | 250° |
| 2026-05-06 03:46 | 44.76447 | -92.76744 | 3983 ft | 216 kts | 251° |
| 2026-05-06 03:46 | 44.75841 | -92.78673 | 3978 ft | 215 kts | 250° |
| 2026-05-06 03:47 | 44.75237 | -92.80606 | 3984 ft | 216 kts | 250° |
| 2026-05-06 03:47 | 44.74634 | -92.82530 | 3992 ft | 215 kts | 250° |
| 2026-05-06 03:47 | 44.74032 | -92.84460 | 3991 ft | 215 kts | 250° |
| 2026-05-06 03:47 | 44.73430 | -92.86392 | 3988 ft | 215 kts | 251° |
| 2026-05-06 03:48 | 44.73169 | -92.88369 | 3998 ft | 208 kts | 281° |
| 2026-05-06 03:48 | 44.73672 | -92.90243 | 3993 ft | 206 kts | 299° |
| 2026-05-06 03:48 | 44.74340 | -92.92009 | 3993 ft | 204 kts | 301° |
| 2026-05-06 03:48 | 44.75110 | -92.93694 | 3992 ft | 204 kts | 304° |
| 2026-05-06 03:49 | 44.75814 | -92.95419 | 3994 ft | 205 kts | 300° |
| 2026-05-06 03:49 | 44.76481 | -92.97183 | 3954 ft | 203 kts | 300° |
| 2026-05-06 03:49 | 44.77139 | -92.98930 | 3698 ft | 203 kts | 300° |
| 2026-05-06 03:49 | 44.77796 | -93.00690 | 3408 ft | 203 kts | 300° |
| 2026-05-06 03:50 | 44.78443 | -93.02451 | 3149 ft | 202 kts | 300° |
| 2026-05-06 03:50 | 44.79198 | -93.04064 | 3005 ft | 195 kts | 311° |
| 2026-05-06 03:50 | 44.80107 | -93.05514 | 2988 ft | 200 kts | 318° |
| 2026-05-06 03:50 | 44.80949 | -93.07066 | 3017 ft | 201 kts | 303° |
| 2026-05-06 03:51 | 44.81765 | -93.08669 | 2968 ft | 200 kts | 312° |
| 2026-05-06 03:51 | 44.82651 | -93.10028 | 2928 ft | 172 kts | 314° |
| 2026-05-06 03:51 | 44.83266 | -93.11289 | 2981 ft | 141 kts | 300° |
| 2026-05-06 03:51 | 44.83686 | -93.12522 | 2998 ft | 140 kts | 300° |
| 2026-05-06 03:52 | 44.84101 | -93.13745 | 2992 ft | 137 kts | 300° |
| 2026-05-06 03:52 | 44.84518 | -93.14951 | 2795 ft | 141 kts | 303° |
| 2026-05-06 03:52 | 44.85132 | -93.16108 | 2171 ft | 154 kts | 314° |
| 2026-05-06 03:52 | 44.85827 | -93.17227 | 1552 ft | 150 kts | 313° |
| 2026-05-06 03:53 | 44.86467 | -93.18341 | 1135 ft | 144 kts | 309° |
| 2026-05-06 03:53 | 44.87006 | -93.19420 | 962 ft | 127 kts | 307° |
| 2026-05-06 03:53 | 44.87471 | -93.20400 | 824 ft | 112 kts | 302° |
| 2026-05-06 03:53 | 44.87747 | -93.21028 | 835 ft | 32 kts | 301° |
| 2026-05-06 03:54 | 44.87837 | -93.21235 | 832 ft | 26 kts | 301° |
| 2026-05-06 03:54 | 44.87876 | -93.21324 | 825 ft | 17 kts | 302° |
| 2026-05-06 03:54 | 44.87944 | -93.21348 | 831 ft | 0 kts | 40° |
| 2026-05-06 03:54 | 44.87954 | -93.21341 | 830 ft | 0 kts | 27° |
| 2026-05-06 03:56 | 44.87989 | -93.21334 | 827 ft | 9 kts | 356° |
| 2026-05-06 03:56 | 44.87999 | -93.21339 | 833 ft | 0 kts | 340° |
| 2026-05-06 03:57 | 44.88001 | -93.21340 | 833 ft | 3 kts | 340° |
| 2026-05-06 03:57 | 44.88023 | -93.21333 | 829 ft | 2 kts | 76° |
| 2026-05-06 03:57 | 44.88014 | -93.21271 | 830 ft | 12 kts | 97° |
| 2026-05-06 03:58 | 44.88023 | -93.21111 | 829 ft | 21 kts | 58° |
| 2026-05-06 03:58 | 44.88074 | -93.21058 | 831 ft | 0 kts | 21° |
| 2026-05-06 03:58 | 44.88092 | -93.21048 | 834 ft | 0 kts | 21° |